Time;durP1;ratioP1;P1;durP2;ratioP2;P2;SDS_P1;SDS_P2;PMS_P1;PMS_P2;Temp;Humidity;BMP_temperature;BMP_pressure;BME280_temperature;BME280_humidity;BME280_pressure;Samples;Min_cycle;Max_cycle;Signal;HPM_P1;HPM_P2
2022/11/08 00:01:57;;;;;;;;;;;;;;;;;;7367114;19;719;-60
2022/11/08 00:04:25;;;;;;;;;;;;;;;;;;7367329;19;804;-62
2022/11/08 00:14:55;;;;;;;;;;;;;;;;;;7366377;19;851;-62
2022/11/08 00:17:23;;;;;;;;;;;;;;;;;;7365517;19;823;-59
2022/11/08 00:19:51;;;;;;;;;;;;;;;;;;7364823;19;1255;-60
2022/11/08 00:22:19;;;;;;;;;;;;;;;;;;7367788;19;1867;-62
2022/11/08 00:24:47;;;;;;;;;;;;;;;;;;7367434;19;1762;-59
2022/11/08 00:27:16;;;;;;;;;;;;;;;;;;7364792;19;819;-59
2022/11/08 00:29:44;;;;;;;;;;;;;;;;;;7361305;19;1838;-60
2022/11/08 00:32:12;;;;;;;;;;;;;;;;;;7366439;19;753;-61
2022/11/08 00:34:40;;;;;;;;;;;;;;;;;;7365764;19;806;-63
2022/11/08 00:37:08;;;;;;;;;;;;;;;;;;7365788;19;804;-63
2022/11/08 00:39:36;;;;;;;;;;;;;;;;;;7364349;19;1283;-64
2022/11/08 00:42:04;;;;;;;;;;;;;;;;;;7369461;19;865;-64
2022/11/08 00:44:32;;;;;;;;;;;;;;;;;;7371467;19;829;-62
2022/11/08 00:47:01;;;;;;;;;;;;;;;;;;7374014;19;2041;-60
2022/11/08 00:49:29;;;;;;;;;;;;;;;;;;7368960;19;1854;-63
2022/11/08 00:51:57;;;;;;;;;;;;;;;;;;7372449;19;917;-62
2022/11/08 00:54:25;;;;;;;;;;;;;;;;;;7370615;19;827;-61
2022/11/08 00:56:53;;;;;;;;;;;;;;;;;;7372338;19;716;-62
2022/11/08 00:59:21;;;;;;;;;;;;;;;;;;7370956;19;844;-59
2022/11/08 01:01:49;;;;;;;;;;;;;;;;;;7369529;19;1378;-62
2022/11/08 01:04:18;;;;;;;;;;;;;;;;;;7371409;19;795;-59
2022/11/08 01:06:46;;;;;;;;;;;;;;;;;;7374037;19;1752;-58
2022/11/08 01:09:14;;;;;;;;;;;;;;;;;;7369659;19;1849;-63
2022/11/08 01:11:45;;;;;;;;;;;;;;;;;;7369789;19;1270;-62
2022/11/08 01:14:13;;;;;;;;;;;;;;;;;;7376492;19;1839;-61
2022/11/08 01:16:41;;;;;;;;;;;;;;;;;;7375550;19;2098;-62
2022/11/08 01:19:09;;;;;;;;;;;;;;;;;;7370495;19;810;-63
2022/11/08 01:21:37;;;;;;;;;;;;;;;;;;7368732;19;1321;-63
2022/11/08 01:24:06;;;;;;;;;;;;;;;;;;7371033;19;823;-60
2022/11/08 01:26:34;;;;;;;;;;;;;;;;;;7370794;19;862;-61
2022/11/08 01:29:02;;;;;;;;;;;;;;;;;;7368783;19;1831;-62
2022/11/08 01:31:30;;;;;;;;;;;;;;;;;;7368770;19;1278;-58
2022/11/08 01:33:58;;;;;;;;;;;;;;;;;;7370943;19;786;-62
2022/11/08 01:36:27;;;;;;;;;;;;;;;;;;7368953;19;798;-62
2022/11/08 01:38:55;;;;;;;;;;;;;;;;;;7369598;19;886;-61
2022/11/08 01:41:23;;;;;;;;;;;;;;;;;;7367765;19;1321;-62
2022/11/08 01:43:51;;;;;;;;;;;;;;;;;;7371151;19;827;-60
2022/11/08 01:46:19;;;;;;;;;;;;;;;;;;7371749;19;1909;-63
2022/11/08 01:48:48;;;;;;;;;;;;;;;;;;7369334;19;1845;-61
2022/11/08 01:51:16;;;;;;;;;;;;;;;;;;7368728;19;1266;-62
2022/11/08 01:53:44;;;;;;;;;;;;;;;;;;7368611;19;818;-61
2022/11/08 01:56:12;;;;;;;;;;;;;;;;;;7370861;19;810;-60
2022/11/08 01:58:40;;;;;;;;;;;;;;;;;;7369144;19;834;-61
2022/11/08 02:01:08;;;;;;;;;;;;;;;;;;7368018;19;1282;-59
2022/11/08 02:03:38;;;;;;;;;;;;;;;;;;7370449;19;819;-61
2022/11/08 02:06:06;;;;;;;;;;;;;;;;;;7370474;19;933;-61
2022/11/08 02:08:34;;;;;;;;;;;;;;;;;;7368729;19;1843;-62
2022/11/08 02:11:02;;;;;;;;;;;;;;;;;;7368879;19;1313;-62
2022/11/08 02:13:30;;;;;;;;;;;;;;;;;;7369821;19;804;-60
2022/11/08 02:15:58;;;;;;;;;;;;;;;;;;7369570;19;1807;-61
2022/11/08 02:18:26;;;;;;;;;;;;;;;;;;7369703;19;816;-62
2022/11/08 02:20:55;;;;;;;;;;;;;;;;;;7368290;19;1324;-62
2022/11/08 02:23:23;;;;;;;;;;;;;;;;;;7369546;19;838;-57
2022/11/08 02:25:51;;;;;;;;;;;;;;;;;;7369590;19;798;-60
2022/11/08 02:28:19;;;;;;;;;;;;;;;;;;7369016;19;1842;-62
2022/11/08 02:30:48;;;;;;;;;;;;;;;;;;7367356;19;1335;-62
2022/11/08 02:33:16;;;;;;;;;;;;;;;;;;7369316;19;871;-63
2022/11/08 02:35:44;;;;;;;;;;;;;;;;;;7369132;19;869;-61
2022/11/08 02:38:12;;;;;;;;;;;;;;;;;;7368680;19;851;-62
2022/11/08 02:40:40;;;;;;;;;;;;;;;;;;7366083;19;1319;-62
2022/11/08 02:43:08;;;;;;;;;;;;;;;;;;7369318;19;775;-62
2022/11/08 02:45:36;;;;;;;;;;;;;;;;;;7368975;19;1842;-62
2022/11/08 02:48:04;;;;;;;;;;;;;;;;;;7373728;19;1921;-58
2022/11/08 02:50:33;;;;;;;;;;;;;;;;;;7368747;19;1277;-59
2022/11/08 02:53:01;;;;;;;;;;;;;;;;;;7370570;19;1650;-58
2022/11/08 02:55:29;;;;;;;;;;;;;;;;;;7369691;19;785;-59
2022/11/08 02:57:57;;;;;;;;;;;;;;;;;;7371981;19;1817;-59
2022/11/08 03:00:25;;;;;;;;;;;;;;;;;;7369124;19;1270;-61
2022/11/08 03:02:53;;;;;;;;;;;;;;;;;;7372577;19;1770;-63
2022/11/08 03:05:21;;;;;;;;;;;;;;;;;;7368602;19;836;-58
2022/11/08 03:07:50;;;;;;;;;;;;;;;;;;7368634;19;803;-58
2022/11/08 03:10:18;;;;;;;;;;;;;;;;;;7367089;19;2194;-56
2022/11/08 03:12:46;;;;;;;;;;;;;;;;;;7369362;19;870;-61
2022/11/08 03:15:14;;;;;;;;;;;;;;;;;;7368594;19;878;-61
2022/11/08 03:17:43;;;;;;;;;;;;;;;;;;7372641;19;1782;-61
2022/11/08 03:20:11;;;;;;;;;;;;;;;;;;7366311;19;1310;-61
2022/11/08 03:22:39;;;;;;;;;;;;;;;;;;7369080;19;964;-62
2022/11/08 03:25:07;;;;;;;;;;;;;;;;;;7368407;19;819;-61
2022/11/08 03:27:35;;;;;;;;;;;;;;;;;;7367369;19;849;-61
2022/11/08 03:30:04;;;;;;;;;;;;;;;;;;7364387;19;1847;-62
2022/11/08 03:32:32;;;;;;;;;;;;;;;;;;7371430;19;2133;-62
2022/11/08 03:35:00;;;;;;;;;;;;;;;;;;7368002;19;814;-61
2022/11/08 03:37:28;;;;;;;;;;;;;;;;;;7367798;19;803;-60
2022/11/08 03:39:57;;;;;;;;;;;;;;;;;;7365596;19;1286;-62
2022/11/08 03:42:25;;;;;;;;;;;;;;;;;;7368486;19;833;-60
2022/11/08 03:44:53;;;;;;;;;;;;;;;;;;7369180;19;1779;-57
2022/11/08 03:47:21;;;;;;;;;;;;;;;;;;7369421;19;800;-61
2022/11/08 03:49:49;;;;;;;;;;;;;;;;;;7365256;19;1814;-61
2022/11/08 03:52:17;;;;;;;;;;;;;;;;;;7371251;19;1126;-63
2022/11/08 03:54:45;;;;;;;;;;;;;;;;;;7368077;19;826;-63
2022/11/08 03:57:14;;;;;;;;;;;;;;;;;;7367455;19;865;-62
2022/11/08 03:59:42;;;;;;;;;;;;;;;;;;7366288;19;1314;-60
2022/11/08 04:04:56;;;;;;;;;;;;;;;;;;7360952;19;1611;-59
2022/11/08 04:07:25;;;;;;;;;;;;;;;;;;7367555;19;787;-62
2022/11/08 04:09:53;;;;;;;;;;;;;;;;;;7364620;19;1842;-60
2022/11/08 04:23:03;;;;;;;;;;;;;;;;;;7366591;19;828;-59
2022/11/08 04:25:31;;;;;;;;;;;;;;;;;;7366558;19;869;-59
2022/11/08 04:28:00;;;;;;;;;;;;;;;;;;7365065;19;843;-61
2022/11/08 04:30:28;;;;;;;;;;;;;;;;;;7363487;19;1838;-59
2022/11/08 04:32:56;;;;;;;;;;;;;;;;;;7366062;19;874;-61
2022/11/08 04:35:24;;;;;;;;;;;;;;;;;;7368942;19;890;-58
2022/11/08 04:37:52;;;;;;;;;;;;;;;;;;7367001;19;741;-61
2022/11/08 04:40:20;;;;;;;;;;;;;;;;;;7364714;19;1790;-61
2022/11/08 04:42:48;;;;;;;;;;;;;;;;;;7365250;19;818;-59
2022/11/08 04:45:17;;;;;;;;;;;;;;;;;;7365497;19;818;-59
2022/11/08 04:47:45;;;;;;;;;;;;;;;;;;7365554;19;878;-64
2022/11/08 04:50:13;;;;;;;;;;;;;;;;;;7362836;19;1857;-62
2022/11/08 04:52:41;;;;;;;;;;;;;;;;;;7365665;19;758;-64
2022/11/08 04:55:09;;;;;;;;;;;;;;;;;;7364580;19;859;-61
2022/11/08 04:57:37;;;;;;;;;;;;;;;;;;7365030;19;863;-62
2022/11/08 05:00:05;;;;;;;;;;;;;;;;;;7365565;19;1381;-61
2022/11/08 05:02:33;;;;;;;;;;;;;;;;;;7365434;19;803;-60
2022/11/08 05:05:02;;;;;;;;;;;;;;;;;;7366369;19;1776;-61
2022/11/08 05:07:30;;;;;;;;;;;;;;;;;;7365564;19;862;-62
2022/11/08 05:09:58;;;;;;;;;;;;;;;;;;7363271;19;1841;-59
2022/11/08 05:12:26;;;;;;;;;;;;;;;;;;7368617;19;1371;-61
2022/11/08 05:14:54;;;;;;;;;;;;;;;;;;7364787;19;823;-61
2022/11/08 05:17:22;;;;;;;;;;;;;;;;;;7364899;19;884;-61
2022/11/08 05:25:12;;;;;;;;;;;;;;;;;;7364327;19;887;-60
2022/11/08 05:27:40;;;;;;;;;;;;;;;;;;7362718;19;817;-60
2022/11/08 05:30:08;;;;;;;;;;;;;;;;;;7368203;19;1847;-61
2022/11/08 05:32:36;;;;;;;;;;;;;;;;;;7369151;19;917;-59
2022/11/08 05:35:04;;;;;;;;;;;;;;;;;;7371341;19;867;-61
2022/11/08 05:37:32;;;;;;;;;;;;;;;;;;7371242;19;767;-61
2022/11/08 05:40:01;;;;;;;;;;;;;;;;;;7370529;19;1347;-60
2022/11/08 05:42:29;;;;;;;;;;;;;;;;;;7374628;19;1839;-63
2022/11/08 05:44:57;;;;;;;;;;;;;;;;;;7370515;19;830;-63
2022/11/08 05:47:25;;;;;;;;;;;;;;;;;;7370706;19;857;-59
2022/11/08 05:49:53;;;;;;;;;;;;;;;;;;7368735;19;1849;-58
2022/11/08 05:52:21;;;;;;;;;;;;;;;;;;7370516;19;776;-60
2022/11/08 05:54:49;;;;;;;;;;;;;;;;;;7370413;19;862;-61
2022/11/08 05:57:17;;;;;;;;;;;;;;;;;;7369960;19;888;-61
2022/11/08 05:59:46;;;;;;;;;;;;;;;;;;7368951;19;1327;-62
2022/11/08 06:02:14;;;;;;;;;;;;;;;;;;7369978;19;866;-61
2022/11/08 06:04:42;;;;;;;;;;;;;;;;;;7369950;19;803;-57
2022/11/08 06:07:10;;;;;;;;;;;;;;;;;;7369769;19;850;-62
2022/11/08 06:09:38;;;;;;;;;;;;;;;;;;7367975;19;1865;-62
2022/11/08 06:12:07;;;;;;;;;;;;;;;;;;7373357;19;1672;-61
2022/11/08 06:14:35;;;;;;;;;;;;;;;;;;7369793;19;870;-62
2022/11/08 06:17:03;;;;;;;;;;;;;;;;;;7370036;19;789;-62
2022/11/08 06:19:31;;;;;;;;;;;;;;;;;;7369190;19;1329;-60
2022/11/08 06:21:59;;;;;;;;;;;;;;;;;;7370028;19;877;-61
2022/11/08 06:24:27;;;;;;;;;;;;;;;;;;7373841;19;1743;-62
2022/11/08 06:26:56;;;;;;;;;;;;;;;;;;7369485;19;791;-64
2022/11/08 06:29:24;;;;;;;;;;;;;;;;;;7370870;19;1846;-64
2022/11/08 06:31:52;;;;;;;;;;;;;;;;;;7368396;19;1690;-64
2022/11/08 06:34:21;;;;;;;;;;;;;;;;;;7369989;19;1838;-64
2022/11/08 06:36:49;;;;;;;;;;;;;;;;;;7369904;19;1783;-64
2022/11/08 06:39:17;;;;;;;;;;;;;;;;;;7367250;19;815;-63
2022/11/08 06:41:45;;;;;;;;;;;;;;;;;;7366658;19;2062;-63
2022/11/08 06:44:13;;;;;;;;;;;;;;;;;;7369610;19;873;-62
2022/11/08 06:46:41;;;;;;;;;;;;;;;;;;7369209;19;742;-62
2022/11/08 06:49:09;;;;;;;;;;;;;;;;;;7368135;19;1824;-62
2022/11/08 06:51:37;;;;;;;;;;;;;;;;;;7368215;19;2037;-60
2022/11/08 06:54:07;;;;;;;;;;;;;;;;;;7369612;19;852;-58
2022/11/08 06:56:35;;;;;;;;;;;;;;;;;;7369227;19;849;-58
2022/11/08 06:59:03;;;;;;;;;;;;;;;;;;7368604;19;808;-61
2022/11/08 07:01:31;;;;;;;;;;;;;;;;;;7366058;19;1286;-64
2022/11/08 07:03:59;;;;;;;;;;;;;;;;;;7368130;19;889;-61
2022/11/08 07:06:27;;;;;;;;;;;;;;;;;;7368635;19;854;-63
2022/11/08 07:08:56;;;;;;;;;;;;;;;;;;7371031;19;1763;-64
2022/11/08 07:11:24;;;;;;;;;;;;;;;;;;7366458;19;1849;-62
2022/11/08 07:13:52;;;;;;;;;;;;;;;;;;7369951;19;814;-64
2022/11/08 07:16:20;;;;;;;;;;;;;;;;;;7368880;19;816;-63
2022/11/08 07:18:50;;;;;;;;;;;;;;;;;;7368608;19;874;-64
2022/11/08 07:21:18;;;;;;;;;;;;;;;;;;7365858;19;1302;-63
2022/11/08 07:23:47;;;;;;;;;;;;;;;;;;7367930;19;793;-63
2022/11/08 07:26:15;;;;;;;;;;;;;;;;;;7368923;19;832;-62
2022/11/08 07:28:43;;;;;;;;;;;;;;;;;;7368598;19;826;-64
2022/11/08 07:31:11;;;;;;;;;;;;;;;;;;7364256;19;1845;-61
2022/11/08 07:33:40;;;;;;;;;;;;;;;;;;7367880;19;865;-67
2022/11/08 07:36:08;;;;;;;;;;;;;;;;;;7367423;19;865;-64
2022/11/08 07:38:36;;;;;;;;;;;;;;;;;;7370257;19;2042;-64
2022/11/08 07:41:04;;;;;;;;;;;;;;;;;;7369226;19;1581;-63
2022/11/08 07:43:32;;;;;;;;;;;;;;;;;;7368225;19;827;-64
2022/11/08 07:46:10;;;;;;;;;;;;;;;;;;7368755;19;1824;-64
2022/11/08 07:48:38;;;;;;;;;;;;;;;;;;7367310;19;821;-65
2022/11/08 07:51:06;;;;;;;;;;;;;;;;;;7361709;19;1846;-62
2022/11/08 07:53:34;;;;;;;;;;;;;;;;;;7367215;19;797;-66
2022/11/08 07:56:03;;;;;;;;;;;;;;;;;;7368112;19;750;-62
2022/11/08 07:58:31;;;;;;;;;;;;;;;;;;7366637;19;839;-61
2022/11/08 08:00:59;;;;;;;;;;;;;;;;;;7366528;19;1274;-61
2022/11/08 08:03:27;;;;;;;;;;;;;;;;;;7367984;19;824;-59
2022/11/08 08:05:55;;;;;;;;;;;;;;;;;;7369277;19;1760;-60
2022/11/08 08:08:23;;;;;;;;;;;;;;;;;;7367043;19;879;-62
2022/11/08 08:10:51;;;;;;;;;;;;;;;;;;7365079;19;1849;-59
2022/11/08 08:13:20;;;;;;;;;;;;;;;;;;7367525;19;816;-62
2022/11/08 08:15:48;;;;;;;;;;;;;;;;;;7367663;19;742;-60
2022/11/08 08:18:19;;;;;;;;;;;;;;;;;;7366927;19;872;-61
2022/11/08 08:20:47;;;;;;;;;;;;;;;;;;7365821;19;1329;-63
2022/11/08 08:23:16;;;;;;;;;;;;;;;;;;7367658;19;799;-61
2022/11/08 08:25:44;;;;;;;;;;;;;;;;;;7368472;19;1816;-63
2022/11/08 08:28:12;;;;;;;;;;;;;;;;;;7365367;19;986;-61
2022/11/08 08:30:40;;;;;;;;;;;;;;;;;;7368078;19;1845;-59
2022/11/08 08:33:08;;;;;;;;;;;;;;;;;;7368125;19;769;-63
2022/11/08 08:35:36;;;;;;;;;;;;;;;;;;7367207;19;1661;-64
2022/11/08 08:38:05;;;;;;;;;;;;;;;;;;7370146;19;1258;-62
2022/11/08 08:40:33;;;;;;;;;;;;;;;;;;7365544;19;1283;-61
2022/11/08 08:43:02;;;;;;;;;;;;;;;;;;7371575;19;1845;-58
2022/11/08 08:45:30;;;;;;;;;;;;;;;;;;7366816;19;1815;-63
2022/11/08 08:47:58;;;;;;;;;;;;;;;;;;7367991;19;1790;-61
2022/11/08 08:50:26;;;;;;;;;;;;;;;;;;7366315;19;1841;-65
2022/11/08 08:52:54;;;;;;;;;;;;;;;;;;7370077;19;1766;-61
2022/11/08 08:55:22;;;;;;;;;;;;;;;;;;7370043;19;1802;-60
2022/11/08 08:57:51;;;;;;;;;;;;;;;;;;7367612;19;1792;-63
2022/11/08 09:00:19;;;;;;;;;;;;;;;;;;7364326;19;1258;-61
2022/11/08 09:02:47;;;;;;;;;;;;;;;;;;7370071;19;767;-62
2022/11/08 09:05:15;;;;;;;;;;;;;;;;;;7371857;19;795;-62
2022/11/08 09:07:43;;;;;;;;;;;;;;;;;;7371898;19;818;-61
2022/11/08 09:10:11;;;;;;;;;;;;;;;;;;7371744;19;1903;-60
2022/11/08 09:12:39;;;;;;;;;;;;;;;;;;7372476;19;1833;-62
2022/11/08 09:15:08;;;;;;;;;;;;;;;;;;7375124;19;1590;-63
2022/11/08 09:17:36;;;;;;;;;;;;;;;;;;7375121;19;1577;-63
2022/11/08 09:20:04;;;;;;;;;;;;;;;;;;7374977;19;1663;-60
2022/11/08 09:22:32;;;;;;;;;;;;;;;;;;7375808;19;1835;-60
2022/11/08 09:25:01;;;;;;;;;;;;;;;;;;7376353;19;1838;-63
2022/11/08 09:27:29;;;;;;;;;;;;;;;;;;7376670;19;1051;-63
2022/11/08 09:29:57;;;;;;;;;;;;;;;;;;7370312;19;1838;-63
2022/11/08 09:32:26;;;;;;;;;;;;;;;;;;7372067;19;737;-62
2022/11/08 09:34:55;;;;;;;;;;;;;;;;;;7372395;19;888;-63
2022/11/08 09:37:23;;;;;;;;;;;;;;;;;;7372382;19;749;-61
2022/11/08 09:39:51;;;;;;;;;;;;;;;;;;7373641;19;2154;-61
2022/11/08 09:42:20;;;;;;;;;;;;;;;;;;7376193;19;1876;-62
2022/11/08 09:44:48;;;;;;;;;;;;;;;;;;7371362;19;855;-60
2022/11/08 09:47:16;;;;;;;;;;;;;;;;;;7371974;19;871;-60
2022/11/08 09:49:44;;;;;;;;;;;;;;;;;;7372245;19;1700;-58
2022/11/08 09:52:12;;;;;;;;;;;;;;;;;;7370411;19;1861;-58
2022/11/08 09:54:41;;;;;;;;;;;;;;;;;;7373675;19;767;-60
2022/11/08 09:57:09;;;;;;;;;;;;;;;;;;7374317;19;891;-63
2022/11/08 09:59:37;;;;;;;;;;;;;;;;;;7370188;19;1258;-62
2022/11/08 10:02:05;;;;;;;;;;;;;;;;;;7376008;19;1972;-63
2022/11/08 10:04:33;;;;;;;;;;;;;;;;;;7371429;19;818;-63
2022/11/08 10:07:01;;;;;;;;;;;;;;;;;;7370422;19;807;-62
2022/11/08 10:09:29;;;;;;;;;;;;;;;;;;7370124;19;814;-60
2022/11/08 10:11:58;;;;;;;;;;;;;;;;;;7368102;19;1834;-63
2022/11/08 10:14:26;;;;;;;;;;;;;;;;;;7368773;19;869;-60
2022/11/08 10:16:54;;;;;;;;;;;;;;;;;;7371754;19;1789;-64
2022/11/08 10:19:22;;;;;;;;;;;;;;;;;;7372778;19;1811;-63
2022/11/08 10:21:50;;;;;;;;;;;;;;;;;;7370624;19;1853;-64
2022/11/08 10:24:18;;;;;;;;;;;;;;;;;;7370410;19;875;-65
2022/11/08 10:26:47;;;;;;;;;;;;;;;;;;7374867;19;1653;-64
2022/11/08 10:29:16;;;;;;;;;;;;;;;;;;7369053;19;818;-62
2022/11/08 10:31:44;;;;;;;;;;;;;;;;;;7367620;19;1846;-61
2022/11/08 10:34:12;;;;;;;;;;;;;;;;;;7369359;19;819;-59
2022/11/08 10:36:40;;;;;;;;;;;;;;;;;;7369959;19;2037;-62
2022/11/08 10:39:08;;;;;;;;;;;;;;;;;;7370107;19;1819;-61
2022/11/08 10:41:37;;;;;;;;;;;;;;;;;;7366680;19;1266;-62
2022/11/08 10:44:05;;;;;;;;;;;;;;;;;;7369979;19;800;-61
2022/11/08 10:46:33;;;;;;;;;;;;;;;;;;7371022;19;1771;-62
2022/11/08 10:49:01;;;;;;;;;;;;;;;;;;7373266;19;1808;-62
2022/11/08 10:51:29;;;;;;;;;;;;;;;;;;7367752;19;1841;-60
2022/11/08 10:53:58;;;;;;;;;;;;;;;;;;7367465;19;1791;-63
2022/11/08 10:56:26;;;;;;;;;;;;;;;;;;7373409;19;1743;-62
2022/11/08 10:58:54;;;;;;;;;;;;;;;;;;7373958;19;2275;-64
2022/11/08 11:01:22;;;;;;;;;;;;;;;;;;7367958;19;1302;-64
2022/11/08 11:03:50;;;;;;;;;;;;;;;;;;7370452;19;1669;-62
2022/11/08 11:06:18;;;;;;;;;;;;;;;;;;7369280;19;868;-63
2022/11/08 11:08:46;;;;;;;;;;;;;;;;;;7369223;19;847;-62
2022/11/08 11:11:14;;;;;;;;;;;;;;;;;;7368080;19;1850;-63
2022/11/08 11:13:43;;;;;;;;;;;;;;;;;;7371688;19;911;-60
2022/11/08 11:16:11;;;;;;;;;;;;;;;;;;7368552;19;799;-63
2022/11/08 11:18:39;;;;;;;;;;;;;;;;;;7368091;19;819;-62
2022/11/08 11:21:07;;;;;;;;;;;;;;;;;;7365745;19;1290;-59
2022/11/08 11:23:36;;;;;;;;;;;;;;;;;;7369915;19;806;-61
2022/11/08 11:26:04;;;;;;;;;;;;;;;;;;7369871;19;1793;-60
2022/11/08 11:28:32;;;;;;;;;;;;;;;;;;7373067;19;1449;-61
2022/11/08 11:31:00;;;;;;;;;;;;;;;;;;7367427;19;1843;-64
2022/11/08 11:33:28;;;;;;;;;;;;;;;;;;7371142;19;1804;-65
2022/11/08 11:35:57;;;;;;;;;;;;;;;;;;7371109;19;2073;-63
2022/11/08 11:38:25;;;;;;;;;;;;;;;;;;7369674;19;806;-63
2022/11/08 11:40:53;;;;;;;;;;;;;;;;;;7368973;19;1349;-62
2022/11/08 11:43:21;;;;;;;;;;;;;;;;;;7375199;19;1753;-63
2022/11/08 11:45:49;;;;;;;;;;;;;;;;;;7368512;19;873;-63
2022/11/08 11:48:17;;;;;;;;;;;;;;;;;;7367663;19;807;-61
2022/11/08 11:50:46;;;;;;;;;;;;;;;;;;7368019;19;1841;-64
2022/11/08 11:53:14;;;;;;;;;;;;;;;;;;7369566;19;784;-61
2022/11/08 11:55:45;;;;;;;;;;;;;;;;;;7368268;19;1881;-62
2022/11/08 11:58:13;;;;;;;;;;;;;;;;;;7368562;19;1823;-60
2022/11/08 12:00:41;;;;;;;;;;;;;;;;;;7365269;19;1223;-65
2022/11/08 12:03:09;;;;;;;;;;;;;;;;;;7368675;19;854;-64
2022/11/08 12:05:37;;;;;;;;;;;;;;;;;;7367992;19;851;-63
2022/11/08 12:08:05;;;;;;;;;;;;;;;;;;7369564;19;1229;-65
2022/11/08 12:10:33;;;;;;;;;;;;;;;;;;7369712;19;1380;-64
2022/11/08 12:13:02;;;;;;;;;;;;;;;;;;7367622;19;1900;-63
2022/11/08 12:15:30;;;;;;;;;;;;;;;;;;7370218;19;2037;-62
2022/11/08 12:17:58;;;;;;;;;;;;;;;;;;7368294;19;2060;-65
2022/11/08 12:20:26;;;;;;;;;;;;;;;;;;7366422;19;1324;-63
2022/11/08 12:22:55;;;;;;;;;;;;;;;;;;7367984;19;802;-62
2022/11/08 12:25:23;;;;;;;;;;;;;;;;;;7370039;19;1767;-65
2022/11/08 12:27:51;;;;;;;;;;;;;;;;;;7368671;19;766;-63
2022/11/08 12:30:19;;;;;;;;;;;;;;;;;;7365801;19;1278;-64
2022/11/08 12:32:47;;;;;;;;;;;;;;;;;;7366018;19;1842;-63
2022/11/08 12:35:16;;;;;;;;;;;;;;;;;;7371967;19;1738;-63
2022/11/08 12:37:44;;;;;;;;;;;;;;;;;;7370755;19;814;-63
2022/11/08 12:40:12;;;;;;;;;;;;;;;;;;7374785;19;1269;-63
2022/11/08 12:42:40;;;;;;;;;;;;;;;;;;7374824;19;779;-65
2022/11/08 12:45:09;;;;;;;;;;;;;;;;;;7374759;19;884;-62
2022/11/08 12:47:37;;;;;;;;;;;;;;;;;;7373626;19;733;-61
2022/11/08 12:50:05;;;;;;;;;;;;;;;;;;7373205;19;1250;-63
2022/11/08 12:52:33;;;;;;;;;;;;;;;;;;7376759;19;1869;-63
2022/11/08 12:55:01;;;;;;;;;;;;;;;;;;7372727;19;926;-65
2022/11/08 12:57:30;;;;;;;;;;;;;;;;;;7373791;19;911;-62
2022/11/08 12:59:59;;;;;;;;;;;;;;;;;;7374992;19;1668;-64
2022/11/08 13:02:27;;;;;;;;;;;;;;;;;;7373245;19;803;-62
2022/11/08 13:04:55;;;;;;;;;;;;;;;;;;7375358;19;1779;-64
2022/11/08 13:07:23;;;;;;;;;;;;;;;;;;7373453;19;887;-63
2022/11/08 13:09:52;;;;;;;;;;;;;;;;;;7372528;19;1273;-64
2022/11/08 13:12:20;;;;;;;;;;;;;;;;;;7371944;19;1847;-63
2022/11/08 13:14:48;;;;;;;;;;;;;;;;;;7375490;19;1034;-58
2022/11/08 13:17:16;;;;;;;;;;;;;;;;;;7373422;19;715;-63
2022/11/08 13:19:44;;;;;;;;;;;;;;;;;;7372882;19;1274;-64
2022/11/08 13:22:12;;;;;;;;;;;;;;;;;;7373466;19;831;-62
2022/11/08 13:24:42;;;;;;;;;;;;;;;;;;7371286;19;815;-62
2022/11/08 13:27:19;;;;;;;;;;;;;;;;;;7372613;19;862;-63
2022/11/08 13:29:47;;;;;;;;;;;;;;;;;;7376322;19;2044;-63
2022/11/08 13:32:15;;;;;;;;;;;;;;;;;;7374606;19;1856;-63
2022/11/08 13:34:43;;;;;;;;;;;;;;;;;;7377718;19;1794;-63
2022/11/08 13:37:12;;;;;;;;;;;;;;;;;;7375170;19;1799;-66
2022/11/08 13:39:40;;;;;;;;;;;;;;;;;;7373821;19;2080;-64
2022/11/08 13:42:08;;;;;;;;;;;;;;;;;;7377403;19;1801;-65
2022/11/08 13:44:36;;;;;;;;;;;;;;;;;;7374262;19;796;-63
2022/11/08 13:47:04;;;;;;;;;;;;;;;;;;7375993;19;1763;-63
2022/11/08 13:49:32;;;;;;;;;;;;;;;;;;7367251;19;1360;-64
2022/11/08 13:52:00;;;;;;;;;;;;;;;;;;7371538;19;1850;-63
2022/11/08 13:54:29;;;;;;;;;;;;;;;;;;7372228;19;803;-63
2022/11/08 13:56:58;;;;;;;;;;;;;;;;;;7371039;19;898;-63
2022/11/08 13:59:26;;;;;;;;;;;;;;;;;;7370764;19;1766;-63
2022/11/08 14:01:54;;;;;;;;;;;;;;;;;;7373078;19;1823;-62
2022/11/08 14:04:22;;;;;;;;;;;;;;;;;;7371507;19;791;-62
2022/11/08 14:06:50;;;;;;;;;;;;;;;;;;7370552;19;834;-63
2022/11/08 14:09:19;;;;;;;;;;;;;;;;;;7370803;19;802;-63
2022/11/08 14:11:47;;;;;;;;;;;;;;;;;;7374130;19;1838;-62
2022/11/08 14:14:15;;;;;;;;;;;;;;;;;;7371202;19;893;-63
2022/11/08 14:16:43;;;;;;;;;;;;;;;;;;7374774;19;1857;-61
2022/11/08 14:19:11;;;;;;;;;;;;;;;;;;7371116;19;791;-62
2022/11/08 14:21:40;;;;;;;;;;;;;;;;;;7369234;19;1294;-60
2022/11/08 14:24:08;;;;;;;;;;;;;;;;;;7371182;19;981;-63
2022/11/08 14:26:36;;;;;;;;;;;;;;;;;;7370568;19;838;-62
2022/11/08 14:29:04;;;;;;;;;;;;;;;;;;7373872;19;1765;-62
2022/11/08 14:31:32;;;;;;;;;;;;;;;;;;7369214;19;1861;-63
2022/11/08 14:34:00;;;;;;;;;;;;;;;;;;7371482;19;801;-64
2022/11/08 14:36:28;;;;;;;;;;;;;;;;;;7370137;19;773;-64
2022/11/08 14:38:58;;;;;;;;;;;;;;;;;;7369186;19;859;-62
2022/11/08 14:41:26;;;;;;;;;;;;;;;;;;7367690;19;1795;-63
2022/11/08 14:43:54;;;;;;;;;;;;;;;;;;7373807;19;1761;-61
2022/11/08 14:46:22;;;;;;;;;;;;;;;;;;7372642;19;1834;-64
2022/11/08 14:48:50;;;;;;;;;;;;;;;;;;7371085;19;2151;-61
2022/11/08 14:51:18;;;;;;;;;;;;;;;;;;7368412;19;1266;-60
2022/11/08 14:53:47;;;;;;;;;;;;;;;;;;7368486;19;1869;-63
2022/11/08 14:56:15;;;;;;;;;;;;;;;;;;7370074;19;979;-65
2022/11/08 14:58:43;;;;;;;;;;;;;;;;;;7368349;19;1851;-63
2022/11/08 15:01:12;;;;;;;;;;;;;;;;;;7366816;19;1350;-61
2022/11/08 15:03:40;;;;;;;;;;;;;;;;;;7369277;19;929;-59
2022/11/08 15:06:10;;;;;;;;;;;;;;;;;;7370651;19;1712;-62
2022/11/08 15:08:38;;;;;;;;;;;;;;;;;;7369363;19;765;-62
2022/11/08 15:11:06;;;;;;;;;;;;;;;;;;7368913;19;1802;-62
2022/11/08 15:13:35;;;;;;;;;;;;;;;;;;7368786;19;1841;-64
2022/11/08 15:16:03;;;;;;;;;;;;;;;;;;7369820;19;857;-62
2022/11/08 15:18:31;;;;;;;;;;;;;;;;;;7369940;19;810;-62
2022/11/08 15:20:59;;;;;;;;;;;;;;;;;;7366793;19;1329;-64
2022/11/08 15:23:28;;;;;;;;;;;;;;;;;;7371990;19;1719;-62
2022/11/08 15:25:56;;;;;;;;;;;;;;;;;;7372868;19;1812;-62
2022/11/08 15:28:24;;;;;;;;;;;;;;;;;;7368097;19;855;-62
2022/11/08 15:30:52;;;;;;;;;;;;;;;;;;7368334;19;1332;-61
2022/11/08 15:33:21;;;;;;;;;;;;;;;;;;7367431;19;1834;-60
2022/11/08 15:35:49;;;;;;;;;;;;;;;;;;7369888;19;818;-56
2022/11/08 15:38:17;;;;;;;;;;;;;;;;;;7368876;19;854;-65
2022/11/08 15:40:45;;;;;;;;;;;;;;;;;;7371773;19;1769;-64
2022/11/08 15:43:13;;;;;;;;;;;;;;;;;;7369311;19;811;-62
2022/11/08 15:45:41;;;;;;;;;;;;;;;;;;7368711;19;805;-64
2022/11/08 15:48:09;;;;;;;;;;;;;;;;;;7368078;19;724;-63
2022/11/08 15:50:38;;;;;;;;;;;;;;;;;;7367243;19;1374;-61
2022/11/08 15:53:06;;;;;;;;;;;;;;;;;;7368880;19;1838;-62
2022/11/08 15:55:34;;;;;;;;;;;;;;;;;;7369615;19;804;-63
2022/11/08 15:58:03;;;;;;;;;;;;;;;;;;7367986;19;791;-61
2022/11/08 16:00:32;;;;;;;;;;;;;;;;;;7367331;19;1324;-59
2022/11/08 16:03:00;;;;;;;;;;;;;;;;;;7367877;19;815;-61
2022/11/08 16:05:28;;;;;;;;;;;;;;;;;;7367499;19;855;-59
2022/11/08 16:07:56;;;;;;;;;;;;;;;;;;7366636;19;857;-62
2022/11/08 16:10:24;;;;;;;;;;;;;;;;;;7368699;19;2218;-58
2022/11/08 16:12:53;;;;;;;;;;;;;;;;;;7365347;19;1830;-63
2022/11/08 16:15:22;;;;;;;;;;;;;;;;;;7367995;19;704;-59
2022/11/08 16:17:50;;;;;;;;;;;;;;;;;;7366381;19;909;-61
2022/11/08 16:20:18;;;;;;;;;;;;;;;;;;7365425;19;1338;-60
2022/11/08 16:22:47;;;;;;;;;;;;;;;;;;7366854;19;776;-61
2022/11/08 16:25:15;;;;;;;;;;;;;;;;;;7366786;19;775;-61
2022/11/08 16:27:43;;;;;;;;;;;;;;;;;;7365004;19;760;-61
2022/11/08 16:30:11;;;;;;;;;;;;;;;;;;7366056;19;1361;-62
2022/11/08 16:32:39;;;;;;;;;;;;;;;;;;7365854;19;1962;-62
2022/11/08 16:35:09;;;;;;;;;;;;;;;;;;7370199;19;2147;-61
2022/11/08 16:37:37;;;;;;;;;;;;;;;;;;7367388;19;788;-62
2022/11/08 16:40:05;;;;;;;;;;;;;;;;;;7366405;19;1341;-63
2022/11/08 16:42:33;;;;;;;;;;;;;;;;;;7368404;19;1489;-59
2022/11/08 16:45:01;;;;;;;;;;;;;;;;;;7366026;19;732;-61
2022/11/08 16:47:29;;;;;;;;;;;;;;;;;;7366182;19;862;-63
2022/11/08 16:49:57;;;;;;;;;;;;;;;;;;7367319;19;1830;-63
2022/11/08 16:52:26;;;;;;;;;;;;;;;;;;7365321;19;1850;-60
2022/11/08 16:54:54;;;;;;;;;;;;;;;;;;7366304;19;1309;-56
2022/11/08 16:57:22;;;;;;;;;;;;;;;;;;7365050;19;847;-62
2022/11/08 16:59:50;;;;;;;;;;;;;;;;;;7362710;19;1259;-63
2022/11/08 17:02:18;;;;;;;;;;;;;;;;;;7365116;19;853;-61
2022/11/08 17:04:46;;;;;;;;;;;;;;;;;;7365071;19;771;-62
2022/11/08 17:07:15;;;;;;;;;;;;;;;;;;7365470;19;735;-63
2022/11/08 17:09:43;;;;;;;;;;;;;;;;;;7365493;19;1212;-59
2022/11/08 17:12:11;;;;;;;;;;;;;;;;;;7367586;19;1548;-56
2022/11/08 17:14:39;;;;;;;;;;;;;;;;;;7362223;19;1846;-61
2022/11/08 17:17:07;;;;;;;;;;;;;;;;;;7364341;19;901;-61
2022/11/08 17:19:35;;;;;;;;;;;;;;;;;;7363057;19;1277;-59
2022/11/08 17:22:03;;;;;;;;;;;;;;;;;;7364687;19;819;-61
2022/11/08 17:24:31;;;;;;;;;;;;;;;;;;7370083;19;830;-60
2022/11/08 17:27:00;;;;;;;;;;;;;;;;;;7371313;19;886;-62
2022/11/08 17:29:28;;;;;;;;;;;;;;;;;;7373265;19;1241;-57
2022/11/08 17:31:56;;;;;;;;;;;;;;;;;;7373347;19;1785;-61
2022/11/08 17:34:24;;;;;;;;;;;;;;;;;;7369978;19;1849;-54
2022/11/08 17:36:53;;;;;;;;;;;;;;;;;;7371197;19;818;-61
2022/11/08 17:39:21;;;;;;;;;;;;;;;;;;7371067;19;1895;-59
2022/11/08 17:41:49;;;;;;;;;;;;;;;;;;7368673;19;1334;-59
2022/11/08 17:44:17;;;;;;;;;;;;;;;;;;7371166;19;764;-60